createdAt,value
2019-03-18T00:00:56.984Z,70.97
2019-03-18T00:03:28.821Z,70.93
2019-03-18T00:06:00.752Z,70.17
2019-03-18T00:08:32.505Z,70.29
2019-03-18T00:11:04.205Z,70.03
2019-03-18T00:13:35.862Z,69.96
2019-03-18T00:16:07.455Z,69.42
2019-03-18T00:18:39.215Z,69.12
2019-03-18T00:21:10.898Z,68.65
2019-03-18T00:23:42.509Z,68.73
2019-03-18T00:26:14.271Z,68.94
2019-03-18T00:28:45.982Z,68.67
2019-03-18T00:31:17.596Z,68.48
2019-03-18T00:33:49.205Z,68.57
2019-03-18T00:36:20.819Z,68.82
2019-03-18T00:38:52.588Z,68.58
2019-03-18T00:41:24.198Z,68.43
2019-03-18T00:43:55.800Z,68.46
2019-03-18T00:46:27.587Z,68.57
2019-03-18T00:49:00.154Z,68.87
2019-03-18T00:51:31.966Z,69.20
2019-03-18T00:54:03.634Z,69.40
2019-03-18T00:56:35.392Z,69.61
2019-03-18T00:59:06.940Z,69.76
2019-03-18T01:01:38.614Z,69.85
2019-03-18T01:04:10.204Z,69.68
2019-03-18T01:06:41.884Z,69.44
2019-03-18T01:09:13.538Z,69.91
2019-03-18T01:11:45.160Z,70.24
2019-03-18T01:14:16.827Z,70.64
2019-03-18T01:16:48.542Z,70.92
2019-03-18T01:19:20.205Z,71.32
2019-03-18T01:21:51.899Z,71.44
2019-03-18T01:24:23.497Z,72.00
2019-03-18T01:26:55.207Z,71.92
2019-03-18T01:29:26.975Z,72.39
2019-03-18T01:31:58.829Z,72.05
2019-03-18T01:34:30.734Z,72.05
2019-03-18T01:37:03.007Z,71.70
2019-03-18T01:39:34.607Z,71.80
2019-03-18T01:42:06.202Z,71.59
2019-03-18T01:44:37.788Z,71.68
2019-03-18T01:47:09.459Z,71.47
2019-03-18T01:49:41.064Z,71.14
2019-03-18T01:52:12.704Z,71.10
2019-03-18T01:54:44.304Z,70.93
2019-03-18T01:57:16.000Z,70.53
2019-03-18T01:59:48.594Z,70.17
2019-03-18T02:02:20.182Z,70.02
2019-03-18T02:04:51.765Z,69.97
2019-03-18T02:07:23.443Z,69.68
2019-03-18T02:09:55.027Z,69.61
2019-03-18T02:12:27.011Z,69.35
2019-03-18T02:14:58.829Z,69.64
2019-03-18T02:17:30.750Z,69.63
2019-03-18T02:20:02.366Z,69.43
2019-03-18T02:22:34.047Z,69.42
2019-03-18T02:25:06.099Z,69.84
2019-03-18T02:27:37.852Z,69.62
2019-03-18T02:30:09.713Z,69.72
2019-03-18T02:32:41.403Z,69.45
2019-03-18T02:35:13.066Z,69.59
2019-03-18T02:37:44.753Z,69.25
2019-03-18T02:40:16.317Z,68.49
2019-03-18T02:42:47.995Z,68.30
2019-03-18T02:45:19.774Z,68.20
2019-03-18T02:47:51.544Z,68.22
2019-03-18T02:50:23.237Z,68.06
2019-03-18T02:52:54.841Z,67.76
2019-03-18T02:55:26.437Z,68.08
2019-03-18T02:57:58.048Z,67.37
2019-03-18T03:00:29.815Z,67.31
2019-03-18T03:03:01.694Z,66.98
2019-03-18T03:05:33.626Z,66.91
2019-03-18T03:08:05.225Z,67.14
2019-03-18T03:10:36.882Z,67.08
2019-03-18T03:13:08.568Z,66.81
2019-03-18T03:15:40.167Z,66.73
2019-03-18T03:18:11.787Z,67.15
2019-03-18T03:20:43.445Z,66.79
2019-03-18T03:23:15.056Z,66.70
2019-03-18T03:25:46.723Z,66.33
2019-03-18T03:28:18.404Z,66.84
2019-03-18T03:30:49.999Z,66.67
2019-03-18T03:33:21.696Z,66.78
2019-03-18T03:35:53.448Z,66.64
2019-03-18T03:38:26.014Z,66.91
2019-03-18T03:40:57.921Z,66.97
2019-03-18T03:43:29.503Z,66.65
2019-03-18T03:46:01.087Z,66.56
2019-03-18T03:48:32.788Z,66.63
2019-03-18T03:51:04.411Z,66.81
2019-03-18T03:53:36.026Z,66.43
2019-03-18T03:56:07.633Z,66.50
2019-03-18T03:58:39.231Z,67.00
2019-03-18T04:01:10.817Z,66.51
2019-03-18T04:03:42.405Z,66.58
2019-03-18T04:06:14.004Z,67.14
2019-03-18T04:08:45.594Z,66.62
2019-03-18T04:11:17.184Z,66.52
2019-03-18T04:13:48.781Z,66.77
2019-03-18T04:16:20.547Z,66.64
2019-03-18T04:18:52.213Z,66.76
2019-03-18T04:21:23.798Z,66.96
2019-03-18T04:23:55.464Z,66.84
2019-03-18T04:26:27.058Z,66.96
2019-03-18T04:28:58.875Z,67.20
2019-03-18T04:31:30.771Z,67.27
2019-03-18T04:34:02.426Z,67.18
2019-03-18T04:36:34.034Z,67.27
2019-03-18T04:39:07.566Z,67.07
2019-03-18T04:41:39.322Z,67.19
2019-03-18T04:44:10.892Z,67.28
2019-03-18T04:46:42.553Z,67.30
2019-03-18T04:49:14.153Z,67.12
2019-03-18T04:51:45.748Z,67.23
2019-03-18T04:54:17.355Z,67.39
2019-03-18T04:56:48.942Z,67.82
2019-03-18T04:59:20.524Z,67.41
2019-03-18T05:01:52.112Z,68.11
2019-03-18T05:04:23.789Z,67.55
2019-03-18T05:06:55.378Z,67.85
2019-03-18T05:09:26.998Z,67.71
2019-03-18T05:11:58.773Z,67.72
2019-03-18T05:14:30.616Z,68.14
2019-03-18T05:17:02.212Z,68.09
2019-03-18T05:19:33.815Z,68.07
2019-03-18T05:22:05.428Z,67.91
2019-03-18T05:24:37.100Z,68.25
2019-03-18T05:27:08.710Z,68.50
2019-03-18T05:29:40.307Z,68.58
2019-03-18T05:32:11.915Z,68.38
2019-03-18T05:34:43.458Z,68.36
2019-03-18T05:37:15.006Z,68.09
2019-03-18T05:39:46.484Z,68.01
2019-03-18T05:42:18.002Z,67.89
2019-03-18T05:44:49.468Z,67.78
2019-03-18T05:47:21.022Z,67.59
2019-03-18T05:49:53.902Z,67.80
2019-03-18T05:52:25.723Z,67.23
2019-03-18T05:54:57.228Z,67.09
2019-03-18T05:57:28.763Z,67.12
2019-03-18T06:00:00.388Z,67.11
2019-03-18T06:02:32.082Z,66.47
2019-03-18T06:05:03.564Z,66.51
2019-03-18T06:07:35.109Z,66.53
2019-03-18T06:10:07.799Z,65.91
2019-03-18T06:12:39.354Z,66.20
2019-03-18T06:15:10.845Z,65.80
2019-03-18T06:17:51.734Z,65.93
2019-03-18T06:20:15.576Z,65.31
2019-03-18T06:22:47.385Z,65.37
2019-03-18T06:25:18.873Z,65.90
2019-03-18T06:27:50.396Z,65.32
2019-03-18T06:30:21.944Z,65.53
2019-03-18T06:32:53.841Z,65.58
2019-03-18T06:35:25.387Z,65.16
2019-03-18T06:37:57.128Z,64.93
2019-03-18T06:40:28.888Z,65.36
2019-03-18T06:43:00.784Z,65.03
2019-03-18T06:45:32.474Z,65.14
2019-03-18T06:48:05.520Z,65.57
2019-03-18T06:50:37.245Z,65.03
2019-03-18T06:53:08.832Z,65.52
2019-03-18T06:55:40.448Z,65.04
2019-03-18T06:58:12.116Z,64.44
2019-03-18T07:00:43.709Z,63.87
2019-03-18T07:03:15.299Z,64.63
2019-03-18T07:05:46.956Z,64.42
2019-03-18T07:08:18.541Z,63.18
2019-03-18T07:10:53.168Z,64.16
2019-03-18T07:13:24.860Z,63.23
2019-03-18T07:15:56.450Z,63.53
2019-03-18T07:18:28.107Z,62.50
2019-03-18T07:20:59.972Z,63.14
2019-03-18T07:23:31.841Z,61.80
2019-03-18T07:26:03.754Z,62.50
2019-03-18T07:28:35.328Z,62.00
2019-03-18T07:31:06.921Z,62.87
2019-03-18T07:33:38.669Z,61.52
2019-03-18T07:36:10.307Z,61.27
2019-03-18T07:38:41.901Z,61.93
2019-03-18T07:41:13.489Z,61.56
2019-03-18T07:43:45.084Z,61.05
2019-03-18T07:46:16.678Z,61.50
2019-03-18T07:48:48.305Z,61.37
2019-03-18T07:51:19.882Z,61.31
2019-03-18T07:53:51.548Z,61.39
2019-03-18T07:56:23.219Z,60.33
2019-03-18T07:58:56.518Z,60.41
2019-03-18T08:01:30.189Z,60.36
2019-03-18T08:04:02.530Z,59.94
2019-03-18T08:06:34.901Z,60.52
2019-03-18T08:09:09.262Z,60.21
2019-03-18T08:11:42.751Z,59.55
2019-03-18T08:14:16.011Z,59.84
2019-03-18T08:16:49.754Z,59.34
2019-03-18T08:19:21.727Z,59.40
2019-03-18T08:21:53.571Z,58.58
2019-03-18T08:24:26.810Z,58.11
2019-03-18T08:26:58.696Z,58.68
2019-03-18T08:29:30.552Z,58.49
2019-03-18T08:32:03.859Z,58.04
2019-03-18T08:34:36.634Z,57.30
2019-03-18T08:37:09.773Z,57.54
2019-03-18T08:39:43.059Z,58.17
2019-03-18T08:42:15.115Z,59.29
2019-03-18T08:44:46.941Z,57.19
2019-03-18T08:47:18.767Z,58.04
2019-03-18T08:49:50.677Z,59.20
2019-03-18T08:52:22.533Z,58.28
2019-03-18T08:54:54.285Z,58.09
2019-03-18T08:57:26.290Z,57.80
2019-03-18T08:59:58.523Z,56.06
2019-03-18T09:02:31.097Z,56.16
2019-03-18T09:05:03.351Z,56.45
2019-03-18T09:07:34.950Z,56.06
2019-03-18T09:10:07.043Z,56.08
2019-03-18T09:12:38.959Z,55.73
2019-03-18T09:15:10.846Z,54.93
2019-03-18T09:17:44.045Z,54.75
2019-03-18T09:20:15.843Z,55.59
2019-03-18T09:22:47.608Z,55.40
2019-03-18T09:25:20.372Z,55.89
2019-03-18T09:27:52.143Z,56.76
2019-03-18T09:30:23.800Z,54.96
2019-03-18T09:32:55.403Z,53.87
2019-03-18T09:35:26.994Z,54.71
2019-03-18T09:37:58.673Z,55.27
2019-03-18T09:40:30.530Z,55.59
2019-03-18T09:43:02.443Z,55.53
2019-03-18T09:45:34.226Z,52.19
2019-03-18T09:48:06.020Z,52.88
2019-03-18T09:50:37.619Z,53.05
2019-03-18T09:53:09.217Z,53.76
2019-03-18T09:55:40.921Z,53.50
2019-03-18T09:58:12.910Z,52.55
2019-03-18T10:00:50.315Z,52.14
2019-03-18T10:03:23.038Z,52.42
2019-03-18T10:05:56.277Z,52.67
2019-03-18T10:08:29.728Z,52.12
2019-03-18T10:11:01.622Z,53.24
2019-03-18T10:13:33.734Z,51.94
2019-03-18T10:16:05.914Z,51.60
2019-03-18T10:18:38.216Z,51.17
2019-03-18T10:21:10.221Z,51.00
2019-03-18T10:23:42.371Z,51.34
2019-03-18T10:26:15.932Z,51.01
2019-03-18T10:28:49.232Z,50.45
2019-03-18T10:31:21.394Z,50.40
2019-03-18T10:33:53.192Z,50.03
2019-03-18T10:36:25.395Z,50.71
2019-03-18T10:38:57.822Z,50.43
2019-03-18T10:41:29.990Z,51.10
2019-03-18T10:44:02.508Z,50.66
2019-03-18T10:46:35.449Z,51.13
2019-03-18T10:49:07.215Z,51.00
2019-03-18T10:51:38.809Z,51.74
2019-03-18T10:54:10.823Z,51.39
2019-03-18T10:56:42.500Z,51.79
2019-03-18T10:59:14.197Z,51.68
2019-03-18T11:01:45.878Z,50.98
2019-03-18T11:04:17.475Z,50.90
2019-03-18T11:06:49.066Z,49.57
2019-03-18T11:09:20.677Z,50.33
2019-03-18T11:11:52.359Z,49.97
2019-03-18T11:14:24.032Z,50.57
2019-03-18T11:16:55.639Z,51.78
2019-03-18T11:19:28.315Z,49.60
2019-03-18T11:22:00.010Z,49.33
2019-03-18T11:24:31.614Z,49.34
2019-03-18T11:27:03.295Z,50.20
2019-03-18T11:29:34.879Z,50.48
2019-03-18T11:32:06.479Z,49.41
2019-03-18T11:34:38.165Z,50.09
2019-03-18T11:37:10.808Z,49.41
2019-03-18T11:39:42.564Z,49.58
2019-03-18T11:42:14.159Z,48.75
2019-03-18T11:44:45.831Z,45.16
2019-03-18T11:47:17.505Z,44.52
2019-03-18T11:49:49.280Z,45.69
2019-03-18T11:52:20.875Z,45.94
2019-03-18T11:54:52.472Z,45.77
2019-03-18T11:57:24.138Z,45.48
2019-03-18T11:59:55.724Z,46.67
2019-03-18T12:02:28.214Z,46.25
2019-03-18T12:04:59.830Z,46.45
2019-03-18T12:07:31.412Z,46.55
2019-03-18T12:10:03.024Z,45.89
2019-03-18T12:12:34.678Z,45.85
2019-03-18T12:15:06.485Z,46.95
2019-03-18T12:17:38.136Z,45.84
2019-03-18T12:20:23.209Z,45.03
2019-03-18T12:22:43.887Z,44.32
2019-03-18T12:25:15.914Z,44.99
2019-03-18T12:27:48.952Z,45.14
2019-03-18T12:30:20.582Z,45.89
2019-03-18T12:32:52.235Z,45.21
2019-03-18T12:35:23.824Z,45.55
2019-03-18T12:37:55.483Z,46.12
2019-03-18T12:40:27.180Z,45.78
2019-03-18T12:42:58.842Z,46.61
2019-03-18T12:45:30.606Z,46.55
2019-03-18T12:48:02.381Z,46.41
2019-03-18T12:50:54.589Z,46.48
2019-03-18T12:53:07.613Z,46.93
2019-03-18T12:55:39.283Z,46.19
2019-03-18T12:58:10.953Z,46.10
2019-03-18T13:00:42.622Z,46.69
2019-03-18T13:03:14.295Z,45.60
2019-03-18T13:05:45.957Z,47.04
2019-03-18T13:08:17.636Z,46.14
2019-03-18T13:10:50.300Z,44.73
2019-03-18T13:13:21.890Z,45.62
2019-03-18T13:15:53.561Z,44.35
2019-03-18T13:18:25.159Z,44.45
2019-03-18T13:21:07.411Z,44.33
2019-03-18T13:23:30.140Z,44.29
2019-03-18T13:26:01.749Z,45.09
2019-03-18T13:28:33.344Z,45.65
2019-03-18T13:31:04.939Z,45.35
2019-03-18T13:33:36.602Z,45.87
2019-03-18T13:36:08.210Z,46.08
2019-03-18T13:38:39.787Z,46.78
2019-03-18T13:41:11.490Z,45.80
2019-03-18T13:43:43.083Z,46.64
2019-03-18T13:46:14.691Z,46.39
2019-03-18T13:48:46.561Z,46.51
2019-03-18T13:51:21.367Z,46.84
2019-03-18T13:53:53.704Z,46.64
2019-03-18T13:56:25.916Z,46.77
2019-03-18T13:58:58.410Z,46.34
2019-03-18T14:01:31.043Z,46.86
2019-03-18T14:04:02.651Z,46.57
2019-03-18T14:06:35.267Z,47.62
2019-03-18T14:09:08.830Z,46.11
2019-03-18T14:11:40.616Z,46.97
2019-03-18T14:14:12.218Z,46.68
2019-03-18T14:16:43.885Z,46.43
2019-03-18T14:19:15.493Z,46.53
2019-03-18T14:21:47.528Z,46.58
2019-03-18T14:24:19.989Z,47.19
2019-03-18T14:26:51.994Z,46.57
2019-03-18T14:29:23.738Z,46.86
2019-03-18T14:32:13.945Z,46.91
2019-03-18T14:34:47.861Z,45.72
2019-03-18T14:37:41.398Z,46.23
2019-03-18T14:40:17.364Z,47.24
2019-03-18T14:43:17.671Z,45.89
2019-03-18T14:45:52.592Z,46.44
2019-03-18T14:48:35.944Z,46.40
2019-03-18T14:51:14.636Z,46.87
2019-03-18T14:53:51.227Z,46.01
2019-03-18T14:56:23.618Z,45.25
2019-03-18T14:58:56.383Z,45.50
2019-03-18T15:01:28.430Z,45.04
2019-03-18T15:04:01.321Z,45.27
2019-03-18T15:06:32.996Z,44.20
2019-03-18T15:09:06.989Z,43.82
2019-03-18T15:11:39.675Z,43.14
2019-03-18T15:14:12.835Z,43.66
2019-03-18T15:16:47.341Z,43.74
2019-03-18T15:19:19.725Z,43.22
2019-03-18T15:21:58.307Z,43.17
2019-03-18T15:24:25.650Z,42.13
2019-03-18T15:26:57.986Z,41.77
2019-03-18T15:29:30.597Z,40.17
2019-03-18T15:32:02.578Z,39.69
2019-03-18T15:34:34.442Z,40.01
2019-03-18T15:37:06.483Z,38.61
2019-03-18T15:39:39.375Z,39.30
2019-03-18T15:42:11.398Z,38.60
2019-03-18T15:44:43.202Z,38.41
2019-03-18T15:47:15.001Z,37.60
2019-03-18T15:49:46.935Z,37.33
2019-03-18T15:52:18.708Z,37.68
2019-03-18T15:54:54.093Z,36.59
2019-03-18T15:57:29.416Z,36.51
2019-03-18T15:59:57.562Z,36.49
2019-03-18T16:02:30.022Z,36.71
2019-03-18T16:05:02.119Z,36.94
2019-03-18T16:07:33.806Z,38.41
2019-03-18T16:10:05.660Z,40.21
2019-03-18T16:12:37.499Z,40.41
2019-03-18T16:15:09.783Z,41.68
2019-03-18T16:17:42.016Z,42.47
2019-03-18T16:20:14.544Z,42.53
2019-03-18T16:22:46.365Z,43.11
2019-03-18T16:25:18.000Z,43.19
2019-03-18T16:27:49.920Z,43.23
2019-03-18T16:30:21.929Z,43.85
2019-03-18T16:32:54.655Z,44.52
2019-03-18T16:35:26.480Z,45.26
2019-03-18T16:37:58.504Z,44.48
2019-03-18T16:40:30.593Z,44.61
2019-03-18T16:43:02.605Z,44.11
2019-03-18T16:45:34.797Z,43.45
2019-03-18T16:48:06.571Z,43.72
2019-03-18T16:50:38.433Z,44.23
2019-03-18T16:53:10.053Z,44.09
2019-03-18T16:55:41.988Z,44.56
2019-03-18T16:58:13.905Z,44.87
2019-03-18T17:00:45.743Z,45.21
2019-03-18T17:03:17.481Z,45.71
2019-03-18T17:05:49.095Z,46.33
2019-03-18T17:08:20.795Z,46.81
2019-03-18T17:10:52.454Z,47.07
2019-03-18T17:13:24.259Z,47.35
2019-03-18T17:15:56.256Z,47.59
2019-03-18T17:18:33.240Z,47.90
2019-03-18T17:21:07.347Z,47.89
2019-03-18T17:23:39.279Z,47.85
2019-03-18T17:26:11.232Z,47.24
2019-03-18T17:28:43.132Z,47.45
2019-03-18T17:31:14.930Z,47.42
2019-03-18T17:33:46.789Z,48.05
2019-03-18T17:36:23.432Z,47.92
2019-03-18T17:38:59.341Z,48.42
2019-03-18T17:41:33.487Z,48.13
2019-03-18T17:44:05.629Z,48.36
2019-03-18T17:46:38.716Z,49.04
2019-03-18T17:49:12.137Z,49.15
2019-03-18T17:51:48.350Z,49.38
2019-03-18T17:54:27.701Z,49.45
2019-03-18T17:57:07.562Z,49.88
2019-03-18T17:59:40.310Z,49.99
2019-03-18T18:02:12.183Z,49.96
2019-03-18T18:04:44.890Z,50.57
2019-03-18T18:07:16.492Z,50.54
2019-03-18T18:09:48.267Z,50.84
2019-03-18T18:12:19.871Z,50.96
2019-03-18T18:14:51.589Z,51.41
2019-03-18T18:17:23.269Z,51.60
2019-03-18T18:19:54.872Z,51.24
2019-03-18T18:22:26.485Z,51.66
2019-03-18T18:24:58.504Z,51.48
2019-03-18T18:27:30.493Z,51.71
2019-03-18T18:30:02.349Z,52.15
2019-03-18T18:32:34.009Z,52.30
2019-03-18T18:35:06.617Z,52.69
2019-03-18T18:37:38.304Z,52.96
2019-03-18T18:40:11.132Z,53.31
2019-03-18T18:42:43.806Z,53.43
2019-03-18T18:45:15.404Z,53.79
2019-03-18T18:47:47.072Z,53.79
2019-03-18T18:50:18.737Z,53.93
2019-03-18T18:52:50.399Z,54.18
2019-03-18T18:55:22.038Z,54.19
2019-03-18T18:57:53.739Z,54.39
2019-03-18T19:00:25.343Z,54.46
2019-03-18T19:02:57.096Z,54.76
2019-03-18T19:05:28.959Z,54.91
2019-03-18T19:08:00.718Z,54.54
2019-03-18T19:10:32.386Z,54.84
2019-03-18T19:13:03.992Z,54.95
2019-03-18T19:15:35.718Z,54.73
2019-03-18T19:18:07.411Z,55.07
2019-03-18T19:20:39.074Z,55.17
2019-03-18T19:23:10.673Z,54.91
2019-03-18T19:25:42.293Z,55.17
2019-03-18T19:28:14.483Z,54.89
2019-03-18T19:30:46.224Z,55.21
2019-03-18T19:33:18.001Z,55.37
2019-03-18T19:35:49.659Z,55.55
2019-03-18T19:38:21.330Z,55.40
2019-03-18T19:40:52.927Z,55.52
2019-03-18T19:43:24.525Z,55.15
2019-03-18T19:45:56.296Z,55.39
2019-03-18T19:48:27.974Z,55.25
2019-03-18T19:50:59.572Z,55.38
2019-03-18T19:53:31.528Z,55.60
2019-03-18T19:56:03.224Z,55.68
2019-03-18T19:58:34.814Z,55.64
2019-03-18T20:01:06.701Z,55.60
2019-03-18T20:03:38.382Z,56.13
2019-03-18T20:06:09.981Z,56.28
2019-03-18T20:08:41.660Z,56.66
2019-03-18T20:11:13.268Z,56.96
2019-03-18T20:13:45.946Z,57.19
2019-03-18T20:16:17.521Z,57.04
2019-03-18T20:18:50.215Z,57.34
2019-03-18T20:21:21.974Z,57.55
2019-03-18T20:24:00.797Z,57.95
2019-03-18T20:26:27.020Z,58.34
2019-03-18T20:28:58.698Z,58.40
2019-03-18T20:31:30.464Z,58.51
2019-03-18T20:34:02.418Z,58.77
2019-03-18T20:36:34.035Z,58.78
2019-03-18T20:39:07.810Z,58.82
2019-03-18T20:41:39.958Z,58.87
2019-03-18T20:44:11.620Z,58.88
2019-03-18T20:46:43.268Z,59.22
2019-03-18T20:49:17.072Z,59.35
2019-03-18T20:51:48.526Z,59.18
2019-03-18T20:54:20.188Z,59.59
2019-03-18T20:56:52.292Z,59.39
2019-03-18T20:59:23.954Z,59.43
2019-03-18T21:01:55.627Z,59.67
2019-03-18T21:04:27.404Z,59.65
2019-03-18T21:06:59.854Z,59.26
2019-03-18T21:09:31.598Z,60.09
2019-03-18T21:12:03.272Z,59.49
2019-03-18T21:14:35.163Z,59.66
2019-03-18T21:17:06.840Z,59.84
2019-03-18T21:19:38.506Z,59.63
2019-03-18T21:22:10.076Z,59.98
2019-03-18T21:24:41.741Z,60.17
2019-03-18T21:27:13.332Z,60.38
2019-03-18T21:29:45.009Z,60.35
2019-03-18T21:32:16.696Z,60.77
2019-03-18T21:34:48.294Z,60.78
2019-03-18T21:37:19.960Z,61.14
2019-03-18T21:39:51.639Z,61.15
2019-03-18T21:42:23.303Z,61.17
2019-03-18T21:44:54.975Z,61.56
2019-03-18T21:47:26.582Z,61.51
2019-03-18T21:49:58.615Z,61.80
2019-03-18T21:52:30.477Z,62.00
2019-03-18T21:55:02.439Z,61.84
2019-03-18T21:57:34.093Z,61.89
2019-03-18T22:00:06.000Z,61.92
2019-03-18T22:02:37.666Z,61.88
2019-03-18T22:05:09.271Z,61.96
2019-03-18T22:07:40.943Z,61.60
2019-03-18T22:10:13.072Z,61.53
2019-03-18T22:12:44.672Z,61.33
2019-03-18T22:15:16.286Z,61.83
2019-03-18T22:17:48.048Z,61.82
2019-03-18T22:20:19.734Z,61.70
2019-03-18T22:22:51.325Z,61.93
2019-03-18T22:25:22.932Z,61.82
2019-03-18T22:27:54.533Z,61.92
2019-03-18T22:30:26.114Z,61.97
2019-03-18T22:32:57.781Z,62.46
2019-03-18T22:35:29.474Z,62.43
2019-03-18T22:38:01.352Z,62.32
2019-03-18T22:40:33.254Z,62.37
2019-03-18T22:43:04.848Z,62.34
2019-03-18T22:45:36.444Z,62.51
2019-03-18T22:48:08.049Z,62.04
2019-03-18T22:50:39.637Z,62.12
2019-03-18T22:53:11.246Z,61.83
2019-03-18T22:55:42.978Z,61.94
2019-03-18T22:58:14.563Z,61.78
2019-03-18T23:00:47.763Z,61.55
2019-03-18T23:03:19.533Z,61.85
2019-03-18T23:05:51.197Z,61.79
2019-03-18T23:08:22.855Z,61.89
2019-03-18T23:10:54.484Z,61.79
2019-03-18T23:13:26.160Z,61.95
2019-03-18T23:15:57.822Z,62.15
2019-03-18T23:18:29.486Z,62.52
2019-03-18T23:21:01.410Z,62.14
2019-03-18T23:23:33.298Z,62.48
2019-03-18T23:26:05.221Z,62.38
2019-03-18T23:28:36.896Z,62.44
2019-03-18T23:31:08.553Z,62.66
2019-03-18T23:33:40.208Z,62.97
2019-03-18T23:36:11.869Z,62.99
2019-03-18T23:38:43.444Z,63.04
2019-03-18T23:41:15.120Z,63.45
2019-03-18T23:43:46.817Z,63.48
2019-03-18T23:46:18.413Z,63.64
2019-03-18T23:48:50.020Z,63.61
2019-03-18T23:51:21.613Z,63.62
2019-03-18T23:53:53.214Z,63.79
2019-03-18T23:56:24.866Z,63.95
2019-03-18T23:58:56.574Z,64.32
